Time;durP1;ratioP1;P1;durP2;ratioP2;P2;SDS_P1;SDS_P2;PMS_P1;PMS_P2;Temp;Humidity;BMP_temperature;BMP_pressure;BME280_temperature;BME280_humidity;BME280_pressure;Samples;Min_cycle;Max_cycle;Signal;HPM_P1;HPM_P2
2022/02/23 00:00:04;;;;;;;10.68;3.97;;;;;;;;;;5032876;28;20120;-59
2022/02/23 00:02:30;;;;;;;6.38;3.47;;;;;;;;;;5035639;28;20431;-59
2022/02/23 00:04:57;;;;;;;10.38;4.57;;;;;;;;;;5043203;28;20360;-58
2022/02/23 00:07:23;;;;;;;9.90;4.85;;;;;;;;;;5040368;28;20088;-59
2022/02/23 00:09:49;;;;;;;6.88;3.30;;;;;;;;;;5037822;28;20056;-62
2022/02/23 00:12:15;;;;;;;16.33;13.13;;;;;;;;;;5038078;28;20021;-58
2022/02/23 00:14:42;;;;;;;9.45;4.25;;;;;;;;;;5043390;28;20032;-59
2022/02/23 00:17:08;;;;;;;12.20;7.22;;;;;;;;;;5040096;28;20089;-59
2022/02/23 00:19:34;;;;;;;13.45;5.38;;;;;;;;;;5042398;28;20029;-58
2022/02/23 00:22:00;;;;;;;7.50;4.93;;;;;;;;;;5040771;28;20037;-59
2022/02/23 00:24:26;;;;;;;10.65;4.53;;;;;;;;;;5042103;28;20055;-59
2022/02/23 00:26:52;;;;;;;11.70;4.75;;;;;;;;;;5038773;28;20037;-58
2022/02/23 00:29:18;;;;;;;9.90;3.85;;;;;;;;;;5041632;28;20387;-58
2022/02/23 00:31:44;;;;;;;12.43;5.55;;;;;;;;;;5042982;28;20056;-59
2022/02/23 00:34:10;;;;;;;8.43;5.20;;;;;;;;;;5039570;28;20034;-58
2022/02/23 00:36:36;;;;;;;8.35;4.95;;;;;;;;;;5041570;28;20051;-59
2022/02/23 00:39:03;;;;;;;11.20;6.07;;;;;;;;;;5044399;28;20037;-59
2022/02/23 00:41:29;;;;;;;9.93;4.93;;;;;;;;;;5042645;28;20036;-58
2022/02/23 00:43:55;;;;;;;8.75;4.60;;;;;;;;;;5039602;28;20026;-62
2022/02/23 00:46:21;;;;;;;8.55;5.18;;;;;;;;;;5042058;28;20116;-63
2022/02/23 00:48:47;;;;;;;8.32;4.30;;;;;;;;;;5041946;28;20044;-62
2022/02/23 00:51:13;;;;;;;9.68;6.05;;;;;;;;;;5041752;28;20064;-62
2022/02/23 00:53:39;;;;;;;10.35;5.60;;;128.70;2252.80;;;;;;5036914;28;20029;-62
2022/02/23 00:56:05;;;;;;;10.65;6.00;;;128.50;2252.80;;;;;;5038889;28;20029;-62
2022/02/23 00:58:30;;;;;;;15.23;6.85;;;128.50;2252.80;;;;;;5040458;28;20032;-63
2022/02/23 01:00:56;;;;;;;13.98;6.05;;;128.50;2252.80;;;;;;5040614;28;20394;-59
2022/02/23 01:03:22;;;;;;;13.63;5.65;;;128.50;2252.80;;;;;;5040686;28;20025;-59
2022/02/23 01:05:48;;;;;;;11.05;5.70;;;128.60;2252.80;;;;;;5039758;28;20037;-58
2022/02/23 01:08:14;;;;;;;12.60;5.82;;;128.40;2252.80;;;;;;5041662;28;20032;-63
2022/02/23 01:10:39;;;;;;;8.68;4.18;;;128.40;2252.80;;;;;;5041517;28;20040;-62
2022/02/23 01:13:05;;;;;;;10.57;5.18;;;128.40;2252.80;;;;;;5042296;28;20018;-62
2022/02/23 01:15:31;;;;;;;10.48;4.40;;;128.50;2252.80;;;;;;5040877;28;20034;-62
2022/02/23 01:17:57;;;;;;;8.65;4.75;;;128.50;2252.80;;;;;;5038744;28;20037;-59
2022/02/23 01:20:23;;;;;;;9.82;5.63;;;128.50;2252.80;;;;;;5041173;28;20530;-58
2022/02/23 01:22:51;;;;;;;13.07;6.20;;;128.30;2252.80;;;;;;5039834;28;20426;-62
2022/02/23 01:25:17;;;;;;;9.02;5.65;;;128.40;2252.80;;;;;;5038850;28;20436;-60
2022/02/23 01:27:43;;;;;;;9.88;5.72;;;128.40;2252.80;;;;;;5040375;28;20103;-62
2022/02/23 01:30:09;;;;;;;12.57;5.32;;;128.40;2252.80;;;;;;5039515;28;20032;-63
2022/02/23 01:32:35;;;;;;;9.10;4.80;;;128.40;2252.80;;;;;;5039029;28;20647;-59
2022/02/23 01:35:00;;;;;;;10.63;5.80;;;128.40;2252.80;;;;;;5041100;28;20025;-63
2022/02/23 01:37:26;;;;;;;10.90;4.93;;;128.30;2252.80;;;;;;5038979;28;20475;-59
2022/02/23 01:39:52;;;;;;;6.35;3.55;;;128.30;2252.80;;;;;;5039500;28;20045;-59
2022/02/23 01:42:18;;;;;;;7.80;3.42;;;128.50;2252.80;;;;;;5040762;28;20021;-64
2022/02/23 01:44:44;;;;;;;37.47;19.80;;;128.50;2252.80;;;;;;5038859;28;20028;-58
2022/02/23 01:47:09;;;;;;;8.15;3.38;;;128.50;2252.80;;;;;;5039418;28;20021;-63
2022/02/23 01:49:35;;;;;;;5.40;2.90;;;128.50;2252.80;;;;;;5040028;28;20025;-58
2022/02/23 01:52:01;;;;;;;8.32;2.58;;;128.40;2252.80;;;;;;5038393;28;20113;-61
2022/02/23 01:54:27;;;;;;;6.40;3.17;;;128.40;2252.80;;;;;;5039558;28;20021;-59
2022/02/23 01:56:53;;;;;;;7.95;3.67;;;128.30;2252.80;;;;;;5040033;28;20021;-58
2022/02/23 01:59:19;;;;;;;7.93;4.32;;;128.30;2252.80;;;;;;5038290;28;20523;-61
2022/02/23 02:01:45;;;;;;;6.15;3.67;;;128.30;2252.80;;;;;;5039938;28;20044;-59
2022/02/23 02:04:11;;;;;;;8.98;4.05;;;128.10;2252.80;;;;;;5039502;28;20072;-58
2022/02/23 02:06:37;;;;;;;17.30;9.30;;;128.20;2252.80;;;;;;5037836;28;20040;-58
2022/02/23 02:09:03;;;;;;;7.65;3.88;;;128.20;2252.80;;;;;;5040005;28;20033;-59
2022/02/23 02:11:28;;;;;;;11.88;10.00;;;128.30;2252.80;;;;;;5038789;28;20025;-59
2022/02/23 02:13:54;;;;;;;8.45;4.22;;;128.20;2252.80;;;;;;5038620;28;20025;-59
2022/02/23 02:16:20;;;;;;;9.02;4.10;;;128.10;2252.80;;;;;;5040290;28;20159;-59
2022/02/23 02:18:46;;;;;;;10.20;4.00;;;128.10;2252.80;;;;;;5038372;28;20100;-60
2022/02/23 02:21:12;;;;;;;8.63;5.20;;;;;;;;;;5038807;28;20021;-59
2022/02/23 02:23:38;;;;;;;7.82;4.07;;;;;;;;;;5039691;28;20112;-59
2022/02/23 02:26:04;;;;;;;11.35;5.20;;;;;;;;;;5038163;28;20048;-59
2022/02/23 02:28:30;;;;;;;22.40;8.50;;;;;;;;;;5038844;28;20025;-62
2022/02/23 02:30:56;;;;;;;17.55;5.47;;;;;;;;;;5039496;28;20049;-59
2022/02/23 02:33:22;;;;;;;8.80;4.47;;;;;;;;;;5037936;28;20109;-60
2022/02/23 02:35:48;;;;;;;10.85;3.47;;;;;;;;;;5031644;28;20108;-59
2022/02/23 02:38:14;;;;;;;14.45;6.10;;;;;;;;;;5030253;28;20026;-63
2022/02/23 02:40:40;;;;;;;16.67;6.18;;;;;;;;;;5029238;28;20025;-58
2022/02/23 02:43:08;;;;;;;11.50;5.18;;;;;;;;;;5029894;28;20045;-58
2022/02/23 02:45:34;;;;;;;8.48;3.85;;;;;;;;;;5029875;28;20424;-59
2022/02/23 02:48:01;;;;;;;6.47;3.15;;;;;;;;;;5030120;28;20027;-59
2022/02/23 02:50:27;;;;;;;15.85;6.43;;;;;;;;;;5029748;28;20034;-59
2022/02/23 02:52:53;;;;;;;7.28;2.72;;;;;;;;;;5030037;28;20067;-60
2022/02/23 02:55:20;;;;;;;8.00;4.32;;;;;;;;;;5030195;28;20022;-59
2022/02/23 02:57:46;;;;;;;10.73;3.30;;;;;;;;;;5030025;28;20053;-59
2022/02/23 03:00:12;;;;;;;11.38;3.45;;;;;;;;;;5029913;28;20025;-59
2022/02/23 03:02:38;;;;;;;8.57;2.70;;;;;;;;;;5029709;28;20025;-59
2022/02/23 03:05:05;;;;;;;8.85;3.38;;;;;;;;;;5029837;28;20021;-59
2022/02/23 03:07:31;;;;;;;9.95;4.97;;;;;;;;;;5029670;28;20469;-59
2022/02/23 03:09:57;;;;;;;12.13;5.47;;;;;;;;;;5029810;28;20029;-59
2022/02/23 03:12:24;;;;;;;14.10;5.55;;;;;;;;;;5029938;28;20123;-59
2022/02/23 03:14:50;;;;;;;15.65;6.30;;;;;;;;;;5029672;28;20529;-60
2022/02/23 03:17:16;;;;;;;7.28;3.45;;;;;;;;;;5029714;28;20018;-58
2022/02/23 03:19:42;;;;;;;7.93;3.60;;;;;;;;;;5029822;28;20476;-58
2022/02/23 03:22:08;;;;;;;13.48;9.45;;;103.30;2227.20;;;;;;5029565;28;20076;-62
2022/02/23 03:24:34;;;;;;;8.07;3.80;;;;;;;;;;5029644;28;20426;-62
2022/02/23 03:27:00;;;;;;;7.88;3.20;;;;;;;;;;5029488;28;20022;-58
2022/02/23 03:29:26;;;;;;;9.57;4.10;;;;;;;;;;5029276;28;20025;-59
2022/02/23 03:31:52;;;;;;;9.35;3.67;;;;;;;;;;5029868;28;20331;-59
2022/02/23 03:34:18;;;;;;;6.47;3.05;;;;;;;;;;5029487;28;20033;-60
2022/02/23 03:36:44;;;;;;;10.85;2.83;;;;;;;;;;5029526;28;20391;-59
2022/02/23 03:39:10;;;;;;;9.88;3.45;;;;;;;;;;5029484;28;20029;-59
2022/02/23 03:41:36;;;;;;;7.13;2.80;;;;;;;;;;5029349;28;20017;-59
2022/02/23 03:44:02;;;;;;;7.47;3.28;;;;;;;;;;5029431;28;20028;-60
2022/02/23 03:46:29;;;;;;;6.57;3.03;;;;;;;;;;5029295;28;20032;-58
2022/02/23 03:48:55;;;;;;;5.78;2.38;;;;;;;;;;5029572;28;20555;-60
2022/02/23 03:51:21;;;;;;;7.18;4.03;;;;;;;;;;5030703;28;20492;-63
2022/02/23 03:53:47;;;;;;;8.98;3.70;;;;;;;;;;5032947;28;20483;-59
2022/02/23 03:58:57;;;;;;;11.30;5.90;;;;;;;;;;5033078;28;20076;-59
2022/02/23 04:01:24;;;;;;;8.75;3.65;;;;;;;;;;5033151;28;20030;-58
2022/02/23 04:03:50;;;;;;;9.27;3.67;;;;;;;;;;5032952;28;20040;-58
2022/02/23 04:06:16;;;;;;;19.48;9.85;;;;;;;;;;5032487;28;20053;-59
2022/02/23 04:08:42;;;;;;;18.27;7.78;;;;;;;;;;5032906;28;20037;-59
2022/02/23 04:11:08;;;;;;;25.00;11.27;;;;;;;;;;5032810;28;20506;-59
2022/02/23 04:13:34;;;;;;;14.77;6.72;;;;;;;;;;5033145;28;20434;-62
2022/02/23 04:16:00;;;;;;;18.42;7.80;;;;;;;;;;5032719;28;20460;-62
2022/02/23 04:18:26;;;;;;;14.32;6.85;;;;;;;;;;5032642;28;20126;-61
2022/02/23 04:20:52;;;;;;;18.00;10.85;;;;;;;;;;5032813;28;20087;-61
2022/02/23 04:23:19;;;;;;;12.88;10.77;;;;;;;;;;5035059;28;20025;-62
2022/02/23 04:25:45;;;;;;;8.90;7.72;;;;;;;;;;5032873;28;20022;-61
2022/02/23 04:28:11;;;;;;;6.85;4.32;;;;;;;;;;5032781;28;20021;-62
2022/02/23 04:30:37;;;;;;;15.63;6.90;;;;;;;;;;5032161;28;20099;-62
2022/02/23 04:33:03;;;;;;;12.88;9.48;;;;;;;;;;5032536;28;20425;-62
2022/02/23 04:35:29;;;;;;;21.45;19.35;;;;;;;;;;5032331;28;20110;-62
2022/02/23 04:37:55;;;;;;;8.98;5.32;;;77.40;2227.20;;;;;;5032223;28;20057;-59
2022/02/23 04:40:20;;;;;;;14.32;10.60;;;77.30;2227.20;;;;;;5032402;28;20463;-62
2022/02/23 04:42:47;;;;;;;8.57;3.65;;;77.20;2227.20;;;;;;5032003;28;20037;-61
2022/02/23 04:45:12;;;;;;;15.88;8.02;;;77.30;2227.20;;;;;;5032280;28;20147;-61
2022/02/23 04:47:38;;;;;;;8.77;4.50;;;77.30;2227.20;;;;;;5032048;28;20527;-61
2022/02/23 04:50:05;;;;;;;9.63;6.05;;;77.40;2227.20;;;;;;5031953;28;20034;-62
2022/02/23 04:52:31;;;;;;;34.67;19.83;;;77.50;2227.20;;;;;;5032189;28;20048;-62
2022/02/23 04:54:57;;;;;;;55.97;35.72;;;77.60;2227.20;;;;;;5031687;28;20038;-58
2022/02/23 04:57:24;;;;;;;28.52;16.60;;;77.70;2227.20;;;;;;5032257;28;20029;-62
2022/02/23 04:59:50;;;;;;;22.45;13.20;;;77.60;2227.20;;;;;;5031965;28;20030;-62
2022/02/23 05:02:16;;;;;;;21.80;13.68;;;77.50;2227.20;;;;;;5039792;28;20049;-61
2022/02/23 05:04:42;;;;;;;17.83;13.52;;;77.60;2227.20;;;;;;5031889;28;20391;-63
2022/02/23 05:07:08;;;;;;;17.58;10.00;;;77.40;2227.20;;;;;;5031473;28;20057;-63
2022/02/23 05:09:34;;;;;;;14.25;8.90;;;77.30;2227.20;;;;;;5031625;28;20455;-62
2022/02/23 05:12:00;;;;;;;17.23;9.07;;;77.20;2227.20;;;;;;5031457;28;20061;-63
2022/02/23 05:14:25;;;;;;;9.95;4.82;;;77.20;2227.20;;;;;;5031402;28;20032;-60
2022/02/23 05:16:51;;;;;;;8.73;3.92;;;77.20;2227.20;;;;;;5031691;28;20025;-61
2022/02/23 05:19:17;;;;;;;13.23;7.60;;;77.40;2227.20;;;;;;5031447;28;20032;-58
2022/02/23 05:21:43;;;;;;;37.15;18.98;;;77.50;2227.20;;;;;;5031669;28;20551;-58
2022/02/23 05:24:08;;;;;;;30.58;17.35;;;77.60;2227.20;;;;;;5031275;28;20388;-59
2022/02/23 05:26:34;;;;;;;28.90;13.50;;;77.50;2227.20;;;;;;5031705;28;20025;-58
2022/02/23 05:29:00;;;;;;;14.48;8.10;;;77.50;2227.20;;;;;;5031367;28;20526;-59
2022/02/23 05:31:25;;;;;;;14.63;7.60;;;77.40;2227.20;;;;;;5031121;28;20037;-62
2022/02/23 05:33:51;;;;;;;16.88;6.72;;;77.50;2227.20;;;;;;5050270;28;20444;-63
2022/02/23 05:36:17;;;;;;;22.10;15.02;;;77.50;2227.20;;;;;;5050866;28;20079;-62
2022/02/23 05:38:42;;;;;;;20.20;12.57;;;77.70;2227.20;;;;;;5051180;28;20395;-62
2022/02/23 05:41:08;;;;;;;22.40;12.52;;;77.70;2227.20;;;;;;5035328;28;20029;-63
2022/02/23 05:43:34;;;;;;;23.65;15.35;;;102.40;2227.20;;;;;;5031853;28;20022;-60
2022/02/23 05:46:00;;;;;;;32.88;19.38;;;102.50;2227.20;;;;;;5038441;28;20124;-58
2022/02/23 05:48:25;;;;;;;20.02;12.23;;;102.50;2227.20;;;;;;5038776;28;20013;-62
2022/02/23 05:50:51;;;;;;;173.23;95.15;;;102.60;2227.20;;;;;;5040950;28;20045;-64
2022/02/23 05:53:17;;;;;;;69.25;37.95;;;102.50;2227.20;;;;;;5039905;28;20108;-59
2022/02/23 05:55:43;;;;;;;21.52;10.95;;;77.70;2227.20;;;;;;5039637;28;20104;-58
2022/02/23 05:58:08;;;;;;;66.50;34.40;;;77.60;2227.20;;;;;;5039767;28;20021;-61
2022/02/23 06:00:34;;;;;;;21.50;11.15;;;77.70;2227.20;;;;;;5047926;28;20111;-63
2022/02/23 06:03:00;;;;;;;25.35;12.05;;;77.50;2227.20;;;;;;5050763;28;20028;-62
2022/02/23 06:05:26;;;;;;;27.73;13.20;;;77.40;2227.20;;;;;;5046895;28;20037;-60
2022/02/23 06:07:51;;;;;;;17.08;8.13;;;77.40;2227.20;;;;;;5050811;28;20044;-64
2022/02/23 06:10:17;;;;;;;14.15;5.50;;;77.50;2227.20;;;;;;5050126;28;20529;-64
2022/02/23 06:12:43;;;;;;;9.77;5.68;;;77.70;2227.20;;;;;;5050552;28;20123;-64
2022/02/23 06:15:09;;;;;;;13.95;6.68;;;102.60;2227.20;;;;;;5050077;28;20462;-63
2022/02/23 06:17:35;;;;;;;16.77;7.57;;;102.80;2227.20;;;;;;5050855;28;20496;-62
2022/02/23 06:20:00;;;;;;;13.57;6.90;;;102.90;2227.20;;;;;;5050493;28;20515;-61
2022/02/23 06:22:27;;;;;;;10.88;7.32;;;103.00;2227.20;;;;;;5050271;28;20032;-62
2022/02/23 06:24:52;;;;;;;19.65;9.77;;;103.20;2227.20;;;;;;5049118;28;20040;-62
2022/02/23 06:27:18;;;;;;;14.18;6.15;;;103.30;2227.20;;;;;;5050152;28;20463;-62
2022/02/23 06:29:44;;;;;;;16.33;7.00;;;128.10;2252.80;;;;;;5043519;28;20044;-64
2022/02/23 06:32:10;;;;;;;37.15;18.95;;;128.30;2252.80;;;;;;5038152;28;20071;-66
2022/02/23 06:34:37;;;;;;;42.00;25.45;;;128.30;2252.80;;;;;;5037782;28;20029;-62
2022/02/23 06:37:06;;;;;;;47.15;27.40;;;128.40;2252.80;;;;;;5039109;28;20033;-66
2022/02/23 06:39:35;;;;;;;52.38;32.35;;;128.40;2252.80;;;;;;5039845;28;20560;-69
2022/02/23 06:42:02;;;;;;;76.50;41.35;;;128.60;2252.80;;;;;;5038440;28;20505;-70
2022/02/23 06:44:29;;;;;;;35.42;20.30;;;128.40;2252.80;;;;;;5049752;28;20021;-62
2022/02/23 06:46:57;;;;;;;43.45;26.45;;;128.40;2252.80;;;;;;5049976;28;20013;-61
2022/02/23 06:49:25;;;;;;;144.32;91.70;;;153.80;2252.80;;;;;;5050044;28;20025;-62
2022/02/23 06:51:53;;;;;;;128.63;83.63;;;205.50;2150.40;;;;;;5050153;28;20033;-62
2022/02/23 06:54:19;;;;;;;92.70;54.50;;;;;;;;;;5049950;28;20049;-61
2022/02/23 06:56:45;;;;;;;48.03;30.77;;;;;;;;;;5049614;28;20025;-63
2022/02/23 06:59:12;;;;;;;43.50;23.35;;;;;;;;;;5049918;28;20121;-62
2022/02/23 07:01:38;;;;;;;39.40;23.65;;;;;;;;;;5049708;28;20399;-62
2022/02/23 07:04:05;;;;;;;38.80;22.85;;;;;;;;;;5049754;28;20043;-62
2022/02/23 07:06:33;;;;;;;28.25;18.58;;;;;;;;;;5049659;28;20088;-62
2022/02/23 07:08:59;;;;;;;33.13;17.85;;;;;;;;;;5049712;28;20384;-62
2022/02/23 07:11:26;;;;;;;17.70;12.77;;;;;;;;;;5049774;28;20072;-63
2022/02/23 07:13:53;;;;;;;19.27;12.90;;;;;;;;;;5050087;28;20375;-63
2022/02/23 07:16:21;;;;;;;17.05;10.45;;;205.50;1996.80;;;;;;5049637;28;20529;-69
2022/02/23 07:18:46;;;;;;;14.23;8.10;;;205.50;2022.40;;;;;;5049494;28;20032;-63
2022/02/23 07:21:12;;;;;;;13.77;8.40;;;205.70;2022.40;;;;;;5049582;28;20025;-62
2022/02/23 07:23:38;;;;;;;13.07;7.40;;;205.40;2048.00;;;;;;5049414;28;20033;-69
2022/02/23 07:26:07;;;;;;;16.23;7.90;;;205.20;2099.20;;;;;;5050566;28;20032;-62
2022/02/23 07:28:33;;;;;;;14.00;7.15;;;205.30;2099.20;;;;;;5053820;28;20032;-63
2022/02/23 07:30:59;;;;;;;14.52;6.97;;;205.30;2124.80;;;;;;5053301;28;20395;-63
2022/02/23 07:33:24;;;;;;;14.82;8.48;;;205.30;2124.80;;;;;;5053427;28;20043;-63
2022/02/23 07:35:50;;;;;;;18.65;11.32;;;205.60;2124.80;;;;;;5053238;28;20048;-62
2022/02/23 07:38:16;;;;;;;15.18;11.43;;;205.40;2124.80;;;;;;5053077;28;20025;-63
2022/02/23 07:40:42;;;;;;;18.50;10.98;;;205.30;2150.40;;;;;;5053198;28;20057;-62
2022/02/23 07:43:08;;;;;;;20.13;10.48;;;256.70;1894.40;;;;;;5053133;28;20191;-62
2022/02/23 07:45:36;;;;;;;34.58;23.67;;;281.90;1817.60;;;;;;5053146;28;20025;-62
2022/02/23 07:48:03;;;;;;;40.65;29.35;;;282.00;1792.00;;;;;;5053113;28;20017;-63
2022/02/23 07:50:30;;;;;;;42.92;27.25;;;;;;;;;;5053021;28;20395;-63
2022/02/23 07:52:56;;;;;;;39.55;25.88;;;;;;;;;;5052896;28;20017;-63
2022/02/23 07:55:24;;;;;;;17.17;10.70;;;;;;;;;;5053203;28;20069;-63
2022/02/23 07:57:51;;;;;;;17.30;10.15;;;;;;;;;;5052819;28;20021;-63
2022/02/23 08:00:18;;;;;;;18.13;12.60;;;333.20;1689.60;;;;;;5052695;28;20092;-65
2022/02/23 08:02:44;;;;;;;17.10;11.15;;;333.40;1638.40;;;;;;5052634;28;20025;-67
2022/02/23 08:05:10;;;;;;;19.42;12.18;;;333.10;1638.40;;;;;;5052701;28;20025;-63
2022/02/23 08:07:36;;;;;;;35.78;25.13;;;333.40;1587.20;;;;;;5052737;28;20049;-63
2022/02/23 08:10:03;;;;;;;38.47;26.48;;;435.60;1382.40;;;;;;5052664;28;20375;-63
2022/02/23 08:12:29;;;;;;;38.58;30.02;;;487.10;1254.40;;;;;;5052692;28;20467;-64
2022/02/23 08:14:56;;;;;;;41.40;30.48;;;512.10;1177.60;;;;;;5052751;28;20032;-64
2022/02/23 08:20:07;;;;;;;27.38;20.52;;;461.50;1228.80;;;;;;5052618;28;20536;-63
2022/02/23 08:22:33;;;;;;;26.27;15.68;;;460.80;1280.00;;;;;;5052616;28;20033;-63
2022/02/23 08:24:59;;;;;;;24.50;16.45;;;461.10;1254.40;;;;;;5052390;28;20031;-63
2022/02/23 08:27:26;;;;;;;18.75;14.07;;;;;;;;;;5052425;28;20033;-64
2022/02/23 08:29:53;;;;;;;18.27;13.13;;;537.90;1100.80;;;;;;5052646;28;20087;-69
2022/02/23 08:32:20;;;;;;;15.63;9.90;;;563.70;1100.80;;;;;;5052247;28;20036;-64
2022/02/23 08:34:48;;;;;;;9.63;7.13;;;589.10;1075.20;;;;;;5051929;28;20025;-64
2022/02/23 08:37:15;;;;;;;13.65;7.97;;;589.50;998.40;;;;;;5052248;28;20112;-62
2022/02/23 08:39:42;;;;;;;11.05;6.97;;;589.60;972.80;;;;;;5052305;28;20021;-65
2022/02/23 08:42:12;;;;;;;11.20;6.68;;;589.50;947.20;;;;;;5052051;28;20025;-61
2022/02/23 08:44:38;;;;;;;12.05;7.88;;;563.50;1049.60;;;;;;5052083;28;20021;-64
2022/02/23 08:47:06;;;;;;;10.95;8.23;;;589.50;998.40;;;;;;5052187;28;20025;-64
2022/02/23 08:49:32;;;;;;;12.98;8.32;;;614.80;921.60;;;;;;5052057;28;20383;-61
2022/02/23 08:51:58;;;;;;;15.63;10.00;;;640.20;921.60;;;;;;5051543;28;20051;-61
2022/02/23 08:54:24;;;;;;;12.63;9.73;;;665.70;896.00;;;;;;5051842;28;20028;-63
2022/02/23 08:56:50;;;;;;;13.65;9.85;;;666.20;896.00;;;;;;5051849;28;20029;-63
2022/02/23 08:59:16;;;;;;;11.50;7.32;;;691.40;870.40;;;;;;5051967;28;20071;-64
2022/02/23 09:01:42;;;;;;;26.33;18.90;;;666.30;870.40;;;;;;5051846;28;20540;-63
2022/02/23 09:04:09;;;;;;;11.93;8.50;;;666.50;870.40;;;;;;5051811;28;20021;-64
2022/02/23 09:06:37;;;;;;;38.50;33.30;;;691.60;819.20;;;;;;5051542;28;20095;-64
2022/02/23 09:09:04;;;;;;;37.83;30.88;;;691.50;844.80;;;;;;5051575;28;20032;-66
2022/02/23 09:11:30;;;;;;;54.75;47.17;;;640.70;844.80;;;;;;5051481;28;20437;-64
2022/02/23 09:13:56;;;;;;;87.15;65.10;;;589.70;921.60;;;;;;5051586;28;20025;-64
2022/02/23 09:16:22;;;;;;;37.30;24.58;;;563.70;972.80;;;;;;5051785;28;20021;-63
2022/02/23 09:18:47;;;;;;;47.53;28.83;;;538.00;998.40;;;;;;5051533;28;20082;-63
2022/02/23 09:21:13;;;;;;;37.05;22.45;;;564.10;972.80;;;;;;5051474;28;20167;-63
2022/02/23 09:23:39;;;;;;;114.20;82.47;;;588.90;972.80;;;;;;5051342;28;20063;-63
2022/02/23 09:26:05;;;;;;;20.77;15.68;;;589.40;921.60;;;;;;5051602;28;20117;-62
2022/02/23 09:28:32;;;;;;;28.60;19.70;;;589.10;947.20;;;;;;5051491;28;20096;-63
2022/02/23 09:30:58;;;;;;;8.63;4.28;;;589.40;947.20;;;;;;5051058;28;20087;-64
2022/02/23 09:33:24;;;;;;;6.90;3.30;;;563.20;998.40;;;;;;5051134;28;20028;-63
2022/02/23 09:35:50;;;;;;;6.93;4.35;;;512.70;972.80;;;;;;5051231;28;20025;-63
2022/02/23 09:38:17;;;;;;;21.63;13.77;;;487.00;1049.60;;;;;;5050807;28;20021;-63
2022/02/23 09:40:51;;;;;;;30.90;17.80;;;461.70;1075.20;;;;;;5050955;28;20040;-63
2022/02/23 09:43:18;;;;;;;30.50;17.52;;;460.90;1126.40;;;;;;5050764;28;20385;-63
2022/02/23 09:45:55;;;;;;;26.33;17.35;;;435.70;1126.40;;;;;;5050870;28;20029;-65
2022/02/23 09:48:28;;;;;;;20.50;13.77;;;435.60;1100.80;;;;;;5050800;28;20027;-63
2022/02/23 09:50:55;;;;;;;11.38;5.55;;;410.40;1126.40;;;;;;5050553;28;20041;-64
2022/02/23 09:53:22;;;;;;;5.70;2.95;;;410.40;1152.00;;;;;;5050921;28;20095;-63
2022/02/23 09:55:50;;;;;;;11.35;6.05;;;435.30;1126.40;;;;;;5050439;28;20029;-63
2022/02/23 09:58:16;;;;;;;10.27;6.70;;;435.40;1152.00;;;;;;5050416;28;20491;-64
2022/02/23 10:00:42;;;;;;;16.02;11.95;;;435.20;1203.20;;;;;;5050479;28;20033;-63
2022/02/23 10:03:10;;;;;;;7.80;3.30;;;410.50;1177.60;;;;;;5050367;28;20025;-63
2022/02/23 10:05:41;;;;;;;4.45;2.78;;;410.20;1203.20;;;;;;5050183;28;20477;-63
2022/02/23 10:08:09;;;;;;;6.90;3.17;;;410.00;1177.60;;;;;;5050486;28;20453;-63
2022/02/23 10:10:40;;;;;;;7.97;3.35;;;410.40;1177.60;;;;;;5050502;28;20040;-64
2022/02/23 10:13:07;;;;;;;7.93;4.25;;;410.30;1177.60;;;;;;5050281;28;20028;-63
2022/02/23 10:15:39;;;;;;;9.40;6.18;;;410.20;1177.60;;;;;;5050476;28;20024;-63
2022/02/23 10:18:10;;;;;;;11.23;8.48;;;409.80;1203.20;;;;;;5050403;28;20039;-63
2022/02/23 10:20:40;;;;;;;11.43;7.50;;;409.70;1228.80;;;;;;5050381;28;20364;-63
2022/02/23 10:23:18;;;;;;;11.52;7.22;;;384.50;1228.80;;;;;;5050470;28;20028;-63
2022/02/23 10:25:49;;;;;;;12.40;9.02;;;384.40;1280.00;;;;;;5050256;28;20031;-63
2022/02/23 10:28:20;;;;;;;9.60;5.53;;;384.60;1228.80;;;;;;5050148;28;20025;-63
2022/02/23 10:30:49;;;;;;;5.72;3.33;;;384.00;1228.80;;;;;;5049869;28;20040;-63
2022/02/23 10:33:20;;;;;;;6.68;2.58;;;384.40;1254.40;;;;;;5050437;28;20017;-62
2022/02/23 10:36:16;;;;;;;14.23;5.95;;;384.60;1254.40;;;;;;5049846;28;20029;-63
2022/02/23 10:38:43;;;;;;;8.95;4.53;;;409.60;1228.80;;;;;;5047764;28;20485;-62
2022/02/23 10:41:22;;;;;;;11.55;5.35;;;409.60;1280.00;;;;;;5047619;28;20032;-63
2022/02/23 10:43:48;;;;;;;6.53;3.30;;;409.70;1254.40;;;;;;5047536;28;20028;-67
2022/02/23 10:46:18;;;;;;;8.20;3.03;;;409.60;1280.00;;;;;;5047881;28;20532;-63
2022/02/23 10:48:56;;;;;;;5.95;2.83;;;409.60;1254.40;;;;;;5047768;28;20598;-66
2022/02/23 10:51:29;;;;;;;7.50;3.55;;;384.70;1254.40;;;;;;5047775;28;20036;-64
2022/02/23 10:54:09;;;;;;;6.10;2.85;;;384.60;1254.40;;;;;;5047667;28;20025;-65
2022/02/23 10:56:44;;;;;;;8.18;3.20;;;409.70;1280.00;;;;;;5047648;28;20108;-67
2022/02/23 10:59:11;;;;;;;8.10;3.33;;;409.60;1280.00;;;;;;5047449;28;20020;-68
2022/02/23 11:01:39;;;;;;;7.38;3.38;;;409.60;1280.00;;;;;;5049224;28;20024;-62
2022/02/23 11:04:05;;;;;;;9.30;4.25;;;384.80;1280.00;;;;;;5051918;28;20037;-63
2022/02/23 11:06:32;;;;;;;20.38;11.75;;;384.70;1280.00;;;;;;5051584;28;20045;-69
2022/02/23 11:08:58;;;;;;;19.95;12.70;;;384.60;1280.00;;;;;;5051507;28;20395;-63
2022/02/23 11:11:26;;;;;;;21.98;11.32;;;384.80;1305.60;;;;;;5051723;28;20106;-63
2022/02/23 11:13:55;;;;;;;9.52;5.22;;;384.50;1280.00;;;;;;5051881;28;20032;-63
2022/02/23 11:16:23;;;;;;;6.72;3.97;;;384.60;1280.00;;;;;;5053387;28;20090;-63
2022/02/23 11:18:49;;;;;;;9.32;3.47;;;384.70;1254.40;;;;;;5053621;28;20498;-63
2022/02/23 11:21:18;;;;;;;13.02;7.72;;;409.60;1305.60;;;;;;5053636;28;20475;-64
2022/02/23 11:23:46;;;;;;;7.65;4.72;;;409.90;1305.60;;;;;;5053891;28;20040;-63
2022/02/23 11:26:18;;;;;;;16.25;9.65;;;384.50;1228.80;;;;;;5053638;28;20547;-63
2022/02/23 11:28:56;;;;;;;15.40;9.63;;;384.70;1305.60;;;;;;5053627;28;20051;-64
2022/02/23 11:31:22;;;;;;;13.82;8.65;;;384.90;1254.40;;;;;;5053366;28;20032;-63
2022/02/23 11:33:58;;;;;;;12.13;7.53;;;384.90;1280.00;;;;;;5053201;28;20025;-63
2022/02/23 11:36:29;;;;;;;9.45;6.78;;;384.90;1254.40;;;;;;5053191;28;20032;-66
2022/02/23 11:38:57;;;;;;;14.10;5.60;;;384.90;1254.40;;;;;;5053389;28;20029;-63
2022/02/23 11:41:31;;;;;;;13.73;8.38;;;384.50;1280.00;;;;;;5053464;28;20364;-62
2022/02/23 11:44:19;;;;;;;22.08;12.35;;;384.20;1305.60;;;;;;5053281;28;20082;-63
2022/02/23 11:46:53;;;;;;;7.47;3.88;;;358.80;1356.80;;;;;;5053458;28;20036;-64
2022/02/23 11:49:26;;;;;;;14.20;6.50;;;359.00;1331.20;;;;;;5053313;28;20352;-67
2022/02/23 11:52:13;;;;;;;10.23;5.03;;;359.10;1356.80;;;;;;5053486;28;20029;-63
2022/02/23 11:54:58;;;;;;;19.30;9.73;;;359.30;1331.20;;;;;;5052899;28;20025;-63
2022/02/23 11:57:42;;;;;;;18.60;10.32;;;359.20;1356.80;;;;;;5053034;28;20386;-61
2022/02/23 12:00:13;;;;;;;15.82;9.02;;;359.30;1331.20;;;;;;5052844;28;20029;-61
2022/02/23 12:02:39;;;;;;;28.38;13.02;;;358.80;1356.80;;;;;;5052746;28;20070;-60
2022/02/23 12:05:07;;;;;;;15.18;6.82;;;358.90;1356.80;;;;;;5052831;28;20037;-63
2022/02/23 12:07:49;;;;;;;14.18;6.28;;;358.90;1356.80;;;;;;5052872;28;20140;-61
2022/02/23 12:10:27;;;;;;;17.40;8.07;;;358.80;1356.80;;;;;;5053077;28;20041;-63
2022/02/23 12:12:53;;;;;;;17.67;8.40;;;358.60;1356.80;;;;;;5052579;28;20467;-65
2022/02/23 12:15:19;;;;;;;18.75;9.48;;;358.80;1382.40;;;;;;5052789;28;20028;-63
2022/02/23 12:17:53;;;;;;;11.40;6.55;;;358.40;1408.00;;;;;;5052863;28;20022;-66
2022/02/23 12:20:38;;;;;;;24.83;14.82;;;333.50;1433.60;;;;;;5052802;28;20029;-61
2022/02/23 12:23:03;;;;;;;196.63;140.05;;;333.30;1459.20;;;;;;5052886;28;20383;-67
2022/02/23 12:25:47;;;;;;;61.13;37.83;;;333.40;1433.60;;;;;;5052357;28;20028;-63
2022/02/23 12:28:18;;;;;;;40.50;23.35;;;333.60;1433.60;;;;;;5052522;28;20021;-66
2022/02/23 12:31:00;;;;;;;41.88;27.38;;;333.60;1433.60;;;;;;5052510;28;20478;-68
2022/02/23 12:33:27;;;;;;;31.58;19.70;;;333.70;1433.60;;;;;;5052292;28;20025;-65
2022/02/23 12:35:54;;;;;;;31.98;20.52;;;333.40;1433.60;;;;;;5052459;28;20139;-68
2022/02/23 12:38:30;;;;;;;38.47;24.50;;;333.40;1433.60;;;;;;5052230;28;20036;-69
2022/02/23 12:40:57;;;;;;;26.13;13.15;;;333.50;1459.20;;;;;;5052431;28;20113;-70
2022/02/23 12:43:24;;;;;;;17.20;6.25;;;333.30;1459.20;;;;;;5049568;28;20124;-69
2022/02/23 12:45:53;;;;;;;13.85;6.03;;;333.30;1433.60;;;;;;5050215;28;20021;-70
2022/02/23 12:48:30;;;;;;;8.85;4.57;;;333.10;1484.80;;;;;;5050416;28;20086;-67
2022/02/23 12:50:56;;;;;;;19.42;7.68;;;333.10;1459.20;;;;;;5050626;28;20589;-66